Skip Navigation Links Skip Navigation Links

Current Weather

Westchester County, White Plains, N.Y.

For information only: do not use for flight planning or navigation.
Latest weather
Observation time Wednesday, August 12, 2020 12:56 PM EDT
Local time Wednesday, August 12, 2020 1:55 PM EDT
Flight conditions Visual Meteorological Conditions
Winds
Wind direction East (90°)
Wind speed 5 mph
Visibility 10 mi.
Sky condition
Ceiling 4,600 ft. broken clouds
Cloud layer few clouds 3,600 ft.
Cloud layer broken clouds 4,600 ft.
Temperature 85°F
Dewpoint 71°F
Altimeter 30.03 in.Hg
Derived measurements
Relative humidity 63%
Heat index 90°F
Density altitude 2318 ft.
Sea-level pressure 30.00 in.Hg
Remarks
Automated weather observing station with precipitation discriminator.
METAR KHPN 121656Z 09004KT 10SM FEW036 BKN046 29/22 A3003 RMK AO2 SLP160 T02940217

Settings

Location code

InnerDrive.Weather 4.0.6770.0 Release CLR 4.0.30319.42000
Copyright ©2018 Inner Drive Technology. All rights reserved. Portions Copyright ©1986-2018 David Braverman.

Find weather

Site navigation


Skip Navigation Links

Place info

Page info

PayPal - The safer, easier way to pay online!

Return home.

Copyright ©2020 Inner Drive Technology. Purveyors of fine, hand-crafted computer software. Page printed 2020-08-12T17:55:06 UTC.